createdAt,value
2017-08-06T00:00:06.831Z,17.90
2017-08-06T00:02:34.302Z,19.73
2017-08-06T00:05:02.113Z,17.00
2017-08-06T00:07:29.788Z,21.80
2017-08-06T00:12:36.808Z,18.00
2017-08-06T00:15:07.341Z,14.63
2017-08-06T00:17:38.130Z,20.60
2017-08-06T00:20:05.695Z,21.20
2017-08-06T00:22:34.149Z,20.70
2017-08-06T00:25:03.555Z,18.40
2017-08-06T00:27:31.086Z,17.33
2017-08-06T00:30:04.384Z,20.67
2017-08-06T00:32:32.972Z,22.73
2017-08-06T00:35:00.640Z,23.83
2017-08-06T00:37:28.404Z,21.67
2017-08-06T00:39:56.752Z,20.93
2017-08-06T00:42:24.240Z,19.40
2017-08-06T00:44:51.728Z,15.40
2017-08-06T00:47:20.384Z,19.40
2017-08-06T00:49:48.712Z,18.33
2017-08-06T00:52:16.419Z,18.07
2017-08-06T00:54:44.818Z,15.63
2017-08-06T00:57:14.072Z,14.70
2017-08-06T00:59:42.796Z,17.60
2017-08-06T01:02:11.384Z,17.03
2017-08-06T01:04:38.887Z,14.83
2017-08-06T01:07:06.446Z,17.47
2017-08-06T01:09:33.968Z,14.93
2017-08-06T01:12:02.787Z,18.73
2017-08-06T01:14:30.292Z,14.53
2017-08-06T01:16:57.877Z,15.83
2017-08-06T01:19:26.210Z,17.40
2017-08-06T01:21:53.902Z,13.00
2017-08-06T01:24:23.251Z,12.50
2017-08-06T01:26:52.195Z,13.90
2017-08-06T01:29:21.169Z,14.90
2017-08-06T01:31:49.256Z,15.17
2017-08-06T01:34:16.806Z,12.30
2017-08-06T01:36:44.327Z,13.47
2017-08-06T01:39:11.825Z,14.33
2017-08-06T01:41:39.315Z,11.03
2017-08-06T01:44:07.852Z,15.37
2017-08-06T01:46:37.868Z,12.30
2017-08-06T01:49:05.457Z,15.10
2017-08-06T01:51:33.017Z,14.00
2017-08-06T01:54:01.312Z,11.60
2017-08-06T01:56:31.054Z,14.30
2017-08-06T01:58:58.554Z,10.93
2017-08-06T02:01:27.085Z,10.50
2017-08-06T02:03:54.652Z,10.30
2017-08-06T02:06:22.214Z,12.40
2017-08-06T02:08:50.452Z,10.40
2017-08-06T02:11:18.081Z,11.20
2017-08-06T02:13:45.563Z,12.73
2017-08-06T02:16:13.203Z,9.30
2017-08-06T02:18:40.727Z,9.07
2017-08-06T02:21:09.237Z,8.70
2017-08-06T02:23:36.702Z,9.67
2017-08-06T02:26:04.811Z,10.07
2017-08-06T02:28:32.927Z,10.50
2017-08-06T02:31:00.577Z,8.73
2017-08-06T02:33:29.141Z,10.70
2017-08-06T02:35:58.105Z,11.40
2017-08-06T02:38:26.128Z,9.80
2017-08-06T02:40:53.807Z,9.17
2017-08-06T02:43:22.708Z,12.90
2017-08-06T02:45:50.284Z,8.67
2017-08-06T02:48:17.812Z,10.20
2017-08-06T02:50:45.368Z,10.13
2017-08-06T02:53:12.942Z,7.70
2017-08-06T02:55:40.629Z,8.70
2017-08-06T02:58:09.008Z,8.40
2017-08-06T03:00:36.492Z,10.97
2017-08-06T03:03:04.861Z,10.60
2017-08-06T03:05:32.493Z,12.00
2017-08-06T03:08:00.142Z,8.30
2017-08-06T03:10:27.692Z,12.57
2017-08-06T03:12:57.076Z,9.47
2017-08-06T03:18:02.145Z,9.17
2017-08-06T03:20:29.695Z,13.70
2017-08-06T03:22:57.270Z,8.20
2017-08-06T03:25:24.819Z,13.33
2017-08-06T03:27:52.839Z,9.50
2017-08-06T03:30:20.304Z,10.80
2017-08-06T03:32:48.418Z,10.83
2017-08-06T03:35:15.939Z,14.83
2017-08-06T03:37:45.149Z,12.10
2017-08-06T03:40:14.224Z,13.53
2017-08-06T03:42:41.821Z,16.07
2017-08-06T03:45:09.302Z,14.67
2017-08-06T03:47:36.761Z,14.60
2017-08-06T03:50:04.346Z,15.47
2017-08-06T03:52:31.904Z,13.63
2017-08-06T03:54:59.383Z,14.77
2017-08-06T03:57:26.896Z,16.40
2017-08-06T03:59:54.388Z,18.37
2017-08-06T04:02:21.907Z,17.57
2017-08-06T04:04:49.410Z,18.37
2017-08-06T04:07:16.995Z,13.97
2017-08-06T04:09:44.942Z,19.03
2017-08-06T04:12:12.553Z,23.23
2017-08-06T04:14:40.109Z,17.50
2017-08-06T04:17:07.650Z,19.20
2017-08-06T04:19:35.128Z,13.57
2017-08-06T04:22:02.592Z,14.93
2017-08-06T04:24:30.102Z,20.53
2017-08-06T04:26:58.944Z,17.10
2017-08-06T04:29:26.569Z,19.87
2017-08-06T04:31:54.113Z,18.07
2017-08-06T04:34:21.612Z,18.60
2017-08-06T04:36:49.067Z,21.57
2017-08-06T04:39:16.648Z,20.80
2017-08-06T04:41:44.636Z,15.00
2017-08-06T04:44:12.145Z,18.60
2017-08-06T04:46:40.456Z,18.83
2017-08-06T04:49:07.956Z,17.53
2017-08-06T04:54:12.283Z,19.70
2017-08-06T04:56:39.787Z,18.73
2017-08-06T04:59:07.419Z,20.53
2017-08-06T05:01:34.921Z,18.73
2017-08-06T05:04:02.435Z,20.80
2017-08-06T05:06:29.911Z,23.40
2017-08-06T05:08:57.424Z,21.63
2017-08-06T05:11:26.204Z,19.97
2017-08-06T05:13:53.729Z,19.67
2017-08-06T05:16:21.276Z,19.90
2017-08-06T05:18:49.504Z,21.60
2017-08-06T05:21:21.642Z,19.30
2017-08-06T05:23:49.107Z,21.10
2017-08-06T05:26:16.623Z,16.77
2017-08-06T05:28:45.113Z,19.97
2017-08-06T05:31:12.654Z,21.73
2017-08-06T05:33:41.603Z,17.80
2017-08-06T05:36:11.277Z,18.40
2017-08-06T05:38:41.027Z,19.77
2017-08-06T05:41:08.557Z,24.87
2017-08-06T05:43:36.043Z,20.60
2017-08-06T05:46:03.539Z,21.60
2017-08-06T05:48:31.973Z,20.70
2017-08-06T05:50:59.467Z,17.07
2017-08-06T05:53:26.965Z,20.00
2017-08-06T05:55:54.479Z,20.07
2017-08-06T05:58:22.043Z,18.77
2017-08-06T06:00:49.618Z,21.17
2017-08-06T06:03:17.284Z,16.37
2017-08-06T06:05:44.834Z,20.67
2017-08-06T06:08:13.284Z,22.00
2017-08-06T06:10:40.787Z,18.97
2017-08-06T06:13:11.083Z,23.93
2017-08-06T06:15:39.931Z,20.70
2017-08-06T06:18:07.997Z,22.10
2017-08-06T06:20:35.561Z,18.63
2017-08-06T06:23:03.150Z,18.67
2017-08-06T06:25:30.731Z,21.17
2017-08-06T06:27:58.213Z,25.63
2017-08-06T06:30:25.751Z,19.07
2017-08-06T06:32:53.311Z,21.23
2017-08-06T06:35:20.991Z,18.30
2017-08-06T06:37:48.445Z,17.77
2017-08-06T06:40:15.981Z,18.50
2017-08-06T06:42:43.902Z,14.90
2017-08-06T06:45:12.339Z,14.60
2017-08-06T06:47:40.736Z,14.00
2017-08-06T06:50:09.569Z,12.53
2017-08-06T06:52:37.898Z,17.57
2017-08-06T06:55:05.572Z,10.37
2017-08-06T06:57:33.295Z,15.43
2017-08-06T07:00:03.341Z,13.20
2017-08-06T07:02:30.943Z,12.23
2017-08-06T07:04:58.460Z,10.20
2017-08-06T07:07:25.915Z,12.47
2017-08-06T07:09:53.427Z,13.33
2017-08-06T07:12:20.940Z,15.47
2017-08-06T07:14:48.462Z,14.13
2017-08-06T07:17:15.947Z,14.80
2017-08-06T07:19:43.527Z,14.40
2017-08-06T07:22:11.250Z,15.50
2017-08-06T07:24:38.695Z,12.33
2017-08-06T07:27:06.895Z,11.80
2017-08-06T07:29:34.423Z,14.43
2017-08-06T07:32:02.008Z,15.60
2017-08-06T07:34:30.308Z,13.40
2017-08-06T07:36:57.956Z,15.33
2017-08-06T07:39:25.990Z,14.50
2017-08-06T07:41:54.414Z,15.33
2017-08-06T07:44:24.985Z,12.97
2017-08-06T07:46:55.577Z,13.17
2017-08-06T07:49:23.171Z,13.30
2017-08-06T07:51:50.644Z,15.97
2017-08-06T07:54:19.239Z,11.93
2017-08-06T07:56:46.768Z,11.70
2017-08-06T07:59:14.450Z,12.20
2017-08-06T08:01:43.117Z,13.50
2017-08-06T08:04:12.470Z,13.43
2017-08-06T08:06:41.586Z,10.83
2017-08-06T08:09:09.231Z,11.23
2017-08-06T08:11:37.622Z,12.13
2017-08-06T08:14:05.281Z,11.00
2017-08-06T08:16:34.122Z,12.03
2017-08-06T08:19:02.019Z,7.40
2017-08-06T08:21:29.491Z,9.10
2017-08-06T08:23:57.977Z,7.10
2017-08-06T08:26:28.525Z,6.73
2017-08-06T08:28:56.252Z,9.23
2017-08-06T08:31:26.059Z,9.70
2017-08-06T08:33:53.759Z,6.67
2017-08-06T08:36:22.163Z,8.43
2017-08-06T08:38:50.693Z,5.37
2017-08-06T08:41:19.051Z,5.33
2017-08-06T08:43:48.647Z,6.13
2017-08-06T08:46:17.236Z,4.97
2017-08-06T08:48:44.829Z,5.73
2017-08-06T08:51:16.522Z,7.23
2017-08-06T08:53:46.866Z,4.40
2017-08-06T08:56:17.160Z,6.53
2017-08-06T08:58:44.829Z,4.90
2017-08-06T09:03:46.525Z,5.80
2017-08-06T09:06:14.281Z,8.73
2017-08-06T09:08:41.898Z,8.40
2017-08-06T09:11:10.744Z,4.90
2017-08-06T09:13:41.535Z,7.03
2017-08-06T09:16:10.364Z,5.63
2017-08-06T09:18:40.338Z,5.73
2017-08-06T09:21:08.705Z,4.10
2017-08-06T09:23:37.670Z,4.20
2017-08-06T09:26:05.392Z,4.20
2017-08-06T09:28:33.012Z,6.43
2017-08-06T09:31:02.818Z,4.60
2017-08-06T09:33:40.829Z,4.73
2017-08-06T09:36:08.445Z,3.93
2017-08-06T09:38:39.109Z,4.60
2017-08-06T09:41:06.715Z,4.80
2017-08-06T09:43:34.784Z,4.03
2017-08-06T09:46:06.004Z,4.87
2017-08-06T09:48:38.714Z,4.00
2017-08-06T09:51:22.430Z,5.60
2017-08-06T09:53:54.027Z,5.00
2017-08-06T09:56:40.982Z,3.70
2017-08-06T09:59:11.641Z,5.00
2017-08-06T10:01:49.437Z,4.37
2017-08-06T10:04:40.095Z,4.50
2017-08-06T10:07:27.642Z,5.23
2017-08-06T10:09:59.181Z,6.10
2017-08-06T10:12:28.032Z,6.50
2017-08-06T10:14:56.491Z,6.93
2017-08-06T10:17:33.052Z,3.77
2017-08-06T10:20:09.401Z,4.80
2017-08-06T10:22:39.500Z,5.00
2017-08-06T10:25:13.647Z,4.47
2017-08-06T10:27:49.884Z,3.97
2017-08-06T10:30:21.237Z,3.67
2017-08-06T10:32:52.083Z,4.20
2017-08-06T10:35:29.292Z,5.17
2017-08-06T10:40:32.899Z,3.87
2017-08-06T10:43:14.730Z,4.07
2017-08-06T10:45:42.699Z,7.37
2017-08-06T10:48:20.787Z,6.83
2017-08-06T10:53:29.668Z,10.00
2017-08-06T10:56:03.187Z,8.57
2017-08-06T10:58:43.642Z,8.73
2017-08-06T11:03:56.572Z,5.97
2017-08-06T11:06:33.982Z,5.23
2017-08-06T11:09:12.818Z,6.50
2017-08-06T11:11:49.336Z,5.33
2017-08-06T11:17:03.944Z,7.23
2017-08-06T11:19:32.253Z,6.60
2017-08-06T11:22:21.496Z,7.67
2017-08-06T11:25:03.013Z,6.40
2017-08-06T11:27:46.469Z,6.30
2017-08-06T11:30:14.297Z,5.87
2017-08-06T11:38:21.733Z,8.50
2017-08-06T11:40:52.074Z,9.93
2017-08-06T11:43:33.277Z,10.93
2017-08-06T11:46:19.297Z,6.70
2017-08-06T11:51:38.480Z,7.10
2017-08-06T11:54:12.075Z,6.87
2017-08-06T11:56:47.587Z,6.50
2017-08-06T12:01:59.413Z,10.10
2017-08-06T12:04:28.219Z,7.20
2017-08-06T12:06:56.473Z,6.70
2017-08-06T12:09:26.247Z,7.90
2017-08-06T12:11:57.022Z,7.30
2017-08-06T12:14:28.660Z,11.60
2017-08-06T12:17:02.868Z,5.20
2017-08-06T12:19:33.258Z,5.90
2017-08-06T12:22:04.874Z,6.70
2017-08-06T12:24:34.506Z,7.57
2017-08-06T12:27:04.118Z,5.13
2017-08-06T12:29:36.048Z,6.30
2017-08-06T12:32:04.382Z,5.00
2017-08-06T12:34:33.575Z,5.57
2017-08-06T12:37:10.755Z,4.67
2017-08-06T12:39:43.586Z,6.43
2017-08-06T12:42:11.620Z,7.13
2017-08-06T12:44:39.299Z,7.33
2017-08-06T12:47:09.888Z,8.57
2017-08-06T12:49:38.892Z,4.73
2017-08-06T12:52:08.395Z,4.70
2017-08-06T12:54:37.136Z,3.67
2017-08-06T12:57:06.244Z,12.40
2017-08-06T12:59:38.544Z,3.60
2017-08-06T13:02:07.541Z,4.40
2017-08-06T13:04:37.002Z,5.43
2017-08-06T13:07:06.165Z,5.53
2017-08-06T13:09:35.047Z,5.13
2017-08-06T13:12:05.214Z,4.80
2017-08-06T13:14:32.965Z,5.03
2017-08-06T13:17:02.409Z,5.33
2017-08-06T13:22:07.702Z,4.63
2017-08-06T13:24:42.431Z,3.70
2017-08-06T13:27:15.755Z,3.40
2017-08-06T13:29:45.252Z,3.40
2017-08-06T13:32:18.274Z,7.40
2017-08-06T13:34:46.940Z,3.60
2017-08-06T13:37:15.197Z,4.67
2017-08-06T13:39:46.015Z,8.57
2017-08-06T13:42:15.579Z,4.30
2017-08-06T13:44:43.372Z,5.87
2017-08-06T13:47:13.281Z,4.73
2017-08-06T13:52:19.061Z,3.77
2017-08-06T13:54:47.423Z,4.30
2017-08-06T13:57:15.307Z,4.97
2017-08-06T13:59:42.912Z,7.63
2017-08-06T14:02:10.611Z,4.30
2017-08-06T14:04:39.599Z,4.97
2017-08-06T14:07:10.045Z,6.60
2017-08-06T14:09:37.864Z,4.87
2017-08-06T14:12:07.211Z,3.70
2017-08-06T14:14:34.809Z,4.80
2017-08-06T14:17:02.314Z,4.23
2017-08-06T14:19:29.974Z,3.83
2017-08-06T14:21:57.814Z,3.43
2017-08-06T14:24:26.815Z,3.83
2017-08-06T14:26:54.508Z,4.50
2017-08-06T14:29:22.046Z,3.83
2017-08-06T14:31:49.556Z,5.30
2017-08-06T14:34:17.804Z,6.20
2017-08-06T14:36:45.383Z,4.33
2017-08-06T14:39:12.944Z,3.90
2017-08-06T14:41:40.520Z,4.07
2017-08-06T14:44:08.999Z,4.57
2017-08-06T14:46:36.685Z,6.57
2017-08-06T14:49:04.215Z,6.43
2017-08-06T14:51:32.083Z,4.27
2017-08-06T14:53:59.695Z,5.10
2017-08-06T14:56:27.326Z,4.63
2017-08-06T14:58:55.004Z,4.77
2017-08-06T15:01:22.652Z,4.17
2017-08-06T15:03:50.254Z,4.57
2017-08-06T15:06:17.852Z,4.50
2017-08-06T15:08:45.393Z,6.00
2017-08-06T15:11:12.969Z,6.50
2017-08-06T15:13:40.569Z,2.90
2017-08-06T15:16:08.314Z,6.80
2017-08-06T15:18:36.085Z,3.40
2017-08-06T15:21:03.581Z,2.90
2017-08-06T15:23:31.066Z,4.30
2017-08-06T15:25:59.456Z,3.00
2017-08-06T15:28:27.792Z,3.50
2017-08-06T15:30:55.303Z,3.70
2017-08-06T15:33:23.633Z,3.30
2017-08-06T15:35:51.314Z,7.83
2017-08-06T15:38:18.815Z,4.43
2017-08-06T15:40:46.308Z,4.73
2017-08-06T15:43:13.899Z,7.23
2017-08-06T15:48:23.016Z,5.47
2017-08-06T15:50:50.513Z,4.17
2017-08-06T15:53:18.006Z,6.03
2017-08-06T15:55:45.615Z,4.40
2017-08-06T15:58:13.240Z,3.93
2017-08-06T16:00:40.795Z,4.43
2017-08-06T16:03:08.334Z,3.43
2017-08-06T16:05:35.784Z,3.83
2017-08-06T16:08:03.513Z,5.57
2017-08-06T16:10:30.988Z,3.30
2017-08-06T16:12:58.445Z,4.73
2017-08-06T16:15:25.935Z,5.23
2017-08-06T16:17:54.237Z,3.43
2017-08-06T16:20:21.772Z,3.77
2017-08-06T16:22:49.318Z,6.40
2017-08-06T16:25:16.919Z,7.80
2017-08-06T16:27:44.581Z,3.43
2017-08-06T16:30:12.350Z,3.80
2017-08-06T16:32:40.164Z,4.60
2017-08-06T16:35:09.582Z,3.73
2017-08-06T16:37:37.349Z,3.70
2017-08-06T16:40:04.989Z,7.50
2017-08-06T16:42:32.659Z,5.00
2017-08-06T16:45:01.020Z,6.50
2017-08-06T16:47:28.773Z,5.43
2017-08-06T16:49:56.374Z,4.80
2017-08-06T16:52:24.759Z,6.80
2017-08-06T16:54:52.454Z,4.93
2017-08-06T16:57:19.964Z,4.73
2017-08-06T16:59:47.594Z,5.90
2017-08-06T17:02:15.280Z,6.10
2017-08-06T17:04:42.835Z,4.90
2017-08-06T17:07:10.357Z,4.00
2017-08-06T17:09:38.065Z,7.67
2017-08-06T17:12:05.567Z,4.93
2017-08-06T17:14:33.174Z,4.47
2017-08-06T17:17:00.940Z,5.90
2017-08-06T17:19:28.579Z,3.73
2017-08-06T17:21:56.930Z,4.40
2017-08-06T17:24:24.514Z,3.77
2017-08-06T17:26:52.050Z,3.60
2017-08-06T17:29:19.731Z,6.80
2017-08-06T17:31:47.332Z,3.60
2017-08-06T17:34:15.016Z,3.90
2017-08-06T17:36:43.253Z,5.70
2017-08-06T17:39:10.847Z,4.10
2017-08-06T17:41:38.496Z,5.10
2017-08-06T17:44:06.161Z,6.27
2017-08-06T17:46:35.627Z,4.50
2017-08-06T17:49:06.050Z,8.00
2017-08-06T17:51:44.163Z,4.60
2017-08-06T17:54:14.445Z,4.00
2017-08-06T17:56:42.093Z,4.50
2017-08-06T17:59:12.423Z,3.40
2017-08-06T18:01:48.224Z,6.90
2017-08-06T18:04:21.989Z,5.53
2017-08-06T18:06:51.080Z,5.80
2017-08-06T18:09:19.544Z,23.90
2017-08-06T18:11:47.102Z,30.60
2017-08-06T18:14:15.996Z,11.10
2017-08-06T18:16:44.887Z,8.57
2017-08-06T18:19:16.606Z,5.60
2017-08-06T18:21:44.572Z,5.00
2017-08-06T18:24:12.360Z,8.67
2017-08-06T18:26:40.596Z,24.40
2017-08-06T18:29:10.423Z,36.80
2017-08-06T18:31:38.782Z,31.47
2017-08-06T18:34:06.407Z,14.27
2017-08-06T18:36:43.857Z,7.67
2017-08-06T18:39:17.123Z,8.23
2017-08-06T18:41:44.807Z,6.27
2017-08-06T18:44:15.830Z,7.17
2017-08-06T18:46:44.193Z,7.00
2017-08-06T18:49:11.804Z,6.40
2017-08-06T18:51:39.395Z,8.13
2017-08-06T18:54:07.095Z,7.80
2017-08-06T18:56:35.598Z,9.77
2017-08-06T18:59:04.374Z,9.23
2017-08-06T19:01:35.737Z,9.50
2017-08-06T19:04:05.540Z,6.63
2017-08-06T19:06:33.087Z,10.07
2017-08-06T19:09:04.529Z,8.13
2017-08-06T19:11:32.160Z,9.30
2017-08-06T19:14:00.074Z,8.50
2017-08-06T19:16:29.497Z,6.13
2017-08-06T19:19:00.402Z,5.53
2017-08-06T19:21:29.428Z,7.50
2017-08-06T19:23:56.987Z,6.60
2017-08-06T19:26:25.140Z,6.17
2017-08-06T19:28:53.713Z,8.97
2017-08-06T19:31:24.364Z,6.97
2017-08-06T19:33:51.968Z,5.47
2017-08-06T19:36:29.240Z,6.87
2017-08-06T19:39:03.262Z,5.33
2017-08-06T19:41:34.700Z,5.67
2017-08-06T19:44:04.238Z,8.37
2017-08-06T19:46:32.945Z,5.57
2017-08-06T19:51:35.034Z,7.80
2017-08-06T19:54:02.567Z,6.17
2017-08-06T19:56:32.997Z,8.43
2017-08-06T19:59:01.302Z,5.87
2017-08-06T20:01:31.396Z,7.20
2017-08-06T20:04:00.250Z,6.30
2017-08-06T20:06:33.666Z,6.80
2017-08-06T20:09:01.988Z,8.87
2017-08-06T20:11:31.316Z,9.67
2017-08-06T20:14:00.171Z,8.73
2017-08-06T20:16:30.615Z,10.00
2017-08-06T20:18:58.484Z,11.90
2017-08-06T20:21:27.799Z,15.13
2017-08-06T20:23:59.050Z,23.80
2017-08-06T20:26:27.155Z,24.60
2017-08-06T20:28:54.902Z,20.90
2017-08-06T20:33:57.687Z,20.47
2017-08-06T20:36:26.995Z,15.23
2017-08-06T20:38:54.588Z,10.73
2017-08-06T20:41:23.318Z,10.37
2017-08-06T20:43:52.878Z,12.13
2017-08-06T20:46:21.268Z,10.30
2017-08-06T20:48:48.974Z,10.20
2017-08-06T20:51:17.434Z,12.07
2017-08-06T20:53:46.194Z,12.20
2017-08-06T20:56:13.798Z,15.60
2017-08-06T20:58:41.727Z,31.07
2017-08-06T21:01:09.441Z,51.20
2017-08-06T21:03:37.046Z,34.33
2017-08-06T21:06:06.575Z,32.27
2017-08-06T21:08:34.192Z,34.47
2017-08-06T21:11:03.371Z,27.43
2017-08-06T21:13:32.504Z,22.23
2017-08-06T21:16:00.087Z,14.80
2017-08-06T21:18:27.767Z,16.10
2017-08-06T21:20:55.439Z,12.60
2017-08-06T21:23:25.071Z,16.50
2017-08-06T21:25:56.429Z,13.47
2017-08-06T21:28:24.211Z,13.97
2017-08-06T21:30:51.740Z,14.17
2017-08-06T21:33:19.269Z,12.20
2017-08-06T21:35:46.855Z,10.40
2017-08-06T21:38:15.111Z,12.30
2017-08-06T21:40:43.141Z,16.20
2017-08-06T21:43:10.738Z,16.23
2017-08-06T21:45:38.315Z,18.30
2017-08-06T21:48:05.799Z,16.87
2017-08-06T21:50:34.099Z,16.10
2017-08-06T21:53:02.425Z,20.40
2017-08-06T21:55:32.158Z,21.03
2017-08-06T21:57:59.971Z,22.20
2017-08-06T22:00:27.511Z,25.07
2017-08-06T22:02:55.260Z,23.10
2017-08-06T22:05:24.598Z,20.20
2017-08-06T22:07:52.392Z,23.27
2017-08-06T22:10:19.942Z,29.47
2017-08-06T22:12:47.435Z,31.77
2017-08-06T22:15:15.532Z,21.10
2017-08-06T22:17:43.018Z,17.47
2017-08-06T22:20:10.508Z,16.50
2017-08-06T22:22:38.114Z,16.50
2017-08-06T22:27:40.347Z,17.63
2017-08-06T22:30:09.531Z,15.63
2017-08-06T22:32:37.186Z,15.97
2017-08-06T22:35:04.857Z,19.00
2017-08-06T22:37:32.368Z,16.23
2017-08-06T22:40:00.083Z,14.13
2017-08-06T22:42:28.449Z,12.57
2017-08-06T22:44:56.013Z,20.20
2017-08-06T22:47:23.575Z,15.03
2017-08-06T22:52:28.636Z,14.90
2017-08-06T22:54:56.337Z,15.93
2017-08-06T22:57:24.142Z,13.33
2017-08-06T22:59:51.727Z,14.60
2017-08-06T23:02:20.146Z,15.20
2017-08-06T23:04:51.782Z,15.27
2017-08-06T23:07:19.454Z,12.97
2017-08-06T23:09:50.801Z,11.07
2017-08-06T23:12:19.219Z,11.80
2017-08-06T23:14:46.820Z,12.03
2017-08-06T23:17:14.910Z,11.50
2017-08-06T23:19:43.770Z,12.17
2017-08-06T23:22:11.331Z,9.73
2017-08-06T23:24:39.828Z,11.40
2017-08-06T23:27:07.570Z,10.37
2017-08-06T23:29:35.931Z,12.97
2017-08-06T23:32:05.093Z,10.20
2017-08-06T23:34:33.098Z,10.53
2017-08-06T23:37:03.535Z,13.23
2017-08-06T23:39:32.129Z,11.93
2017-08-06T23:41:59.765Z,11.13
2017-08-06T23:44:28.416Z,10.20
2017-08-06T23:46:55.924Z,12.87
2017-08-06T23:49:26.380Z,12.57
2017-08-06T23:51:54.113Z,11.43
2017-08-06T23:54:22.641Z,12.27
2017-08-06T23:56:50.313Z,12.33
2017-08-06T23:59:17.985Z,9.97
